Zatiahnuté
Spojené s riasovitými oblakmi a s možnosťou niekoľkých búrkových oblakov
Spojené s riasovitými oblakmi a s možnosťou niekoľkých búrkových oblakov
Spojené s riasovitými oblakmi a s možnosťou niekoľkých búrkových oblakov
Ľahký dážď, možnosť búrok
Ľahký dážď, možnosť búrok
Ľahký dážď, možnosť búrok
(°C)
22°
22°
22°
22°
22°
22°
21°
21°
20°
20°
19°
19°
18°
18°
(°C)
19°
22°
21°
21°
20°
18°
17°
VSV
VSV
VSV
VSV
SV
S
ZSZ
(km/h)
21-34
9-24
9-28
9-22
8-19
8-19
7-18
(mm)
0
0
0
0
0.6
0.2
0.2
(%)
43
48
48
48
53
58
48

Výška Slnka nad obzorom

/ 49.6°
sun-icon
UV 4
05:23
20:59
Zmenšujúci sa polmesiac (228°)
00:31
08:17

Správy METAR pre lokalitu Innsbruck (LOWI)

Čas Podmienky Teplota/
Rosný bod
Vietor Viditeľnosť Počasie Oblaky Tlak Zmeniť Nespracované
VFR 23°C / 13°C 270º 10kt 9700m - Few Clouds 8000ft
Broken Clouds 11000ft
1015 No Significant change LOWI 271320Z 27010KT 9999 FEW080 BKN110 23/13 Q1015 NOSIG
VFR 22°C / 13°C 270º 12kt 9700m - Scattered Clouds 8000ft
Broken Clouds 12000ft
1016 No Significant change LOWI 271250Z 27012KT 9999 SCT080 BKN120 22/13 Q1016 NOSIG
VFR 22°C / 13°C 270º 15kt 9700m - Scattered Clouds 8000ft
Broken Clouds 12000ft
1016 No Significant change LOWI 271220Z 27015KT 9999 SCT080 BKN120 22/13 Q1016 NOSIG
VFR 23°C / 10°C 90º variable 050º to 120º 8kt 9700m - Scattered Clouds 8000ft
Broken Clouds 12000ft
1016 No Significant change LOWI 271150Z 09008KT 050V120 9999 SCT080 BKN120 23/10 Q1016 NOSIG
VFR 23°C / 10°C 90º variable 060º to 120º 9kt 9700m - Scattered Clouds 7500ft
Broken Clouds 12000ft
1016 No Significant change LOWI 271120Z 09009KT 060V120 9999 SCT075 BKN120 23/10 Q1016 NOSIG
VFR 22°C / 10°C 80º variable 060º to 130º 10kt 9700m - Few Clouds 7000ft
Broken Clouds 12000ft
1017 No Significant change LOWI 271050Z 08010KT 060V130 9999 FEW070 BKN120 22/10 Q1017 NOSIG
VFR 21°C / 10°C 90º variable 050º to 130º 9kt 9700m - Few Clouds 7000ft
Broken Clouds 12000ft
1018 No Significant change LOWI 271020Z 09009KT 050V130 9999 FEW070 BKN120 21/10 Q1018 NOSIG
VFR 21°C / 11°C 100º variable 050º to 150º 8kt 9700m - Few Clouds 6500ft
Scattered Clouds 11000ft
1018 No Significant change LOWI 270950Z 10008KT 050V150 9999 FEW065 SCT110 21/11 Q1018 NOSIG
VFR 21°C / 11°C 100º variable 030º to 170º 5kt 9700m - Few Clouds 6000ft
Scattered Clouds 12000ft
1018 No Significant change LOWI 270920Z 10005KT 030V170 9999 FEW060 SCT120 21/11 Q1018 NOSIG
VFR 20°C / 11°C 2kt 9700m - Few Clouds 6000ft 1019 No Significant change LOWI 270850Z VRB02KT 9999 FEW060 20/11 Q1019 NOSIG
VFR 19°C / 10°C 1kt 9700m - Few Clouds 6000ft 1019 No Significant change LOWI 270820Z VRB01KT 9999 FEW060 19/10 Q1019 NOSIG
VFR 19°C / 11°C 1kt 9700m - Few Clouds 6000ft 1020 No Significant change LOWI 270750Z VRB01KT 9999 FEW060 19/11 Q1020 NOSIG
VFR 17°C / 11°C 280º variable 240º to 310º 4kt 9700m - Few Clouds 6000ft 1020 No Significant change LOWI 270720Z 28004KT 240V310 9999 FEW060 17/11 Q1020 NOSIG
VFR 17°C / 11°C 1kt 9700m - Few Clouds 6000ft 1020 No Significant change LOWI 270650Z VRB01KT 9999 FEW060 17/11 Q1020 NOSIG
VFR 16°C / 10°C 250º variable 220º to 280º 3kt 9700m - Few Clouds 6000ft 1020 No Significant change LOWI 270620Z 25003KT 220V280 9999 FEW060 16/10 Q1020 NOSIG
VFR 15°C / 10°C 250º 3kt 9700m - Few Clouds 6000ft 1020 No Significant change LOWI 270550Z 25003KT 9999 FEW060 15/10 Q1020 NOSIG
VFR 14°C / 11°C 260º variable 230º to 290º 3kt 9700m - Few Clouds 6000ft 1020 No Significant change LOWI 270520Z 26003KT 230V290 9999 FEW060 14/11 Q1020 NOSIG
VFR 12°C / 10°C 1kt 9700m - Few Clouds 6000ft 1020 No Significant change LOWI 270450Z VRB01KT 9999 FEW060 12/10 Q1020 NOSIG
VFR 12°C / 10°C 2kt 9700m - Few Clouds 8000ft
Scattered Clouds 12000ft
1020 No Significant change LOWI 270420Z VRB02KT 9999 FEW080 SCT120 12/10 Q1020 NOSIG
VFR 11°C / 10°C 240º 3kt 9700m - Few Clouds 8000ft
Scattered Clouds 12000ft
1020 No Significant change LOWI 270350Z 24003KT 9999 FEW080 SCT120 11/10 Q1020 NOSIG
VFR 12°C / 9°C 250º 2kt 9700m - Few Clouds 12000ft 1020 - LOWI 270320Z AUTO 25002KT 9999 FEW120 12/09 Q1020
VFR 12°C / 10°C 1kt 9700m - Few Clouds 11000ft 1020 - LOWI 270250Z AUTO VRB01KT 9999 FEW110 12/10 Q1020
VFR 13°C / 10°C 1kt 9700m - Few Clouds 8000ft 1020 - LOWI 270220Z AUTO VRB01KT 9999 FEW080 13/10 Q1020
VFR 13°C / 10°C 1kt 9700m - Few Clouds 8000ft
Broken Clouds 9000ft
1020 - LOWI 270150Z AUTO VRB01KT 9999 FEW080 BKN090 13/10 Q1020

VFR

23°C / 13°C

[Viac]
Vietor 270º 10kt
Viditeľnosť 9700m
Počasie -
Oblaky Few Clouds 8000ft
Broken Clouds 11000ft
Tlak 1015
Zmeniť No Significant change
Nespracované LOWI 271320Z 27010KT 9999 FEW080 BKN110 23/13 Q1015 NOSIG

VFR

22°C / 13°C

[Viac]
Vietor 270º 12kt
Viditeľnosť 9700m
Počasie -
Oblaky Scattered Clouds 8000ft
Broken Clouds 12000ft
Tlak 1016
Zmeniť No Significant change
Nespracované LOWI 271250Z 27012KT 9999 SCT080 BKN120 22/13 Q1016 NOSIG

VFR

22°C / 13°C

[Viac]
Vietor 270º 15kt
Viditeľnosť 9700m
Počasie -
Oblaky Scattered Clouds 8000ft
Broken Clouds 12000ft
Tlak 1016
Zmeniť No Significant change
Nespracované LOWI 271220Z 27015KT 9999 SCT080 BKN120 22/13 Q1016 NOSIG

VFR

23°C / 10°C

[Viac]
Vietor 90º variable 050º to 120º 8kt
Viditeľnosť 9700m
Počasie -
Oblaky Scattered Clouds 8000ft
Broken Clouds 12000ft
Tlak 1016
Zmeniť No Significant change
Nespracované LOWI 271150Z 09008KT 050V120 9999 SCT080 BKN120 23/10 Q1016 NOSIG

VFR

23°C / 10°C

[Viac]
Vietor 90º variable 060º to 120º 9kt
Viditeľnosť 9700m
Počasie -
Oblaky Scattered Clouds 7500ft
Broken Clouds 12000ft
Tlak 1016
Zmeniť No Significant change
Nespracované LOWI 271120Z 09009KT 060V120 9999 SCT075 BKN120 23/10 Q1016 NOSIG

VFR

22°C / 10°C

[Viac]
Vietor 80º variable 060º to 130º 10kt
Viditeľnosť 9700m
Počasie -
Oblaky Few Clouds 7000ft
Broken Clouds 12000ft
Tlak 1017
Zmeniť No Significant change
Nespracované LOWI 271050Z 08010KT 060V130 9999 FEW070 BKN120 22/10 Q1017 NOSIG

VFR

21°C / 10°C

[Viac]
Vietor 90º variable 050º to 130º 9kt
Viditeľnosť 9700m
Počasie -
Oblaky Few Clouds 7000ft
Broken Clouds 12000ft
Tlak 1018
Zmeniť No Significant change
Nespracované LOWI 271020Z 09009KT 050V130 9999 FEW070 BKN120 21/10 Q1018 NOSIG

VFR

21°C / 11°C

[Viac]
Vietor 100º variable 050º to 150º 8kt
Viditeľnosť 9700m
Počasie -
Oblaky Few Clouds 6500ft
Scattered Clouds 11000ft
Tlak 1018
Zmeniť No Significant change
Nespracované LOWI 270950Z 10008KT 050V150 9999 FEW065 SCT110 21/11 Q1018 NOSIG

VFR

21°C / 11°C

[Viac]
Vietor 100º variable 030º to 170º 5kt
Viditeľnosť 9700m
Počasie -
Oblaky Few Clouds 6000ft
Scattered Clouds 12000ft
Tlak 1018
Zmeniť No Significant change
Nespracované LOWI 270920Z 10005KT 030V170 9999 FEW060 SCT120 21/11 Q1018 NOSIG

VFR

20°C / 11°C

[Viac]
Vietor 2kt
Viditeľnosť 9700m
Počasie -
Oblaky Few Clouds 6000ft
Tlak 1019
Zmeniť No Significant change
Nespracované LOWI 270850Z VRB02KT 9999 FEW060 20/11 Q1019 NOSIG

VFR

19°C / 10°C

[Viac]
Vietor 1kt
Viditeľnosť 9700m
Počasie -
Oblaky Few Clouds 6000ft
Tlak 1019
Zmeniť No Significant change
Nespracované LOWI 270820Z VRB01KT 9999 FEW060 19/10 Q1019 NOSIG

VFR

19°C / 11°C

[Viac]
Vietor 1kt
Viditeľnosť 9700m
Počasie -
Oblaky Few Clouds 6000ft
Tlak 1020
Zmeniť No Significant change
Nespracované LOWI 270750Z VRB01KT 9999 FEW060 19/11 Q1020 NOSIG

VFR

17°C / 11°C

[Viac]
Vietor 280º variable 240º to 310º 4kt
Viditeľnosť 9700m
Počasie -
Oblaky Few Clouds 6000ft
Tlak 1020
Zmeniť No Significant change
Nespracované LOWI 270720Z 28004KT 240V310 9999 FEW060 17/11 Q1020 NOSIG

VFR

17°C / 11°C

[Viac]
Vietor 1kt
Viditeľnosť 9700m
Počasie -
Oblaky Few Clouds 6000ft
Tlak 1020
Zmeniť No Significant change
Nespracované LOWI 270650Z VRB01KT 9999 FEW060 17/11 Q1020 NOSIG

VFR

16°C / 10°C

[Viac]
Vietor 250º variable 220º to 280º 3kt
Viditeľnosť 9700m
Počasie -
Oblaky Few Clouds 6000ft
Tlak 1020
Zmeniť No Significant change
Nespracované LOWI 270620Z 25003KT 220V280 9999 FEW060 16/10 Q1020 NOSIG

VFR

15°C / 10°C

[Viac]
Vietor 250º 3kt
Viditeľnosť 9700m
Počasie -
Oblaky Few Clouds 6000ft
Tlak 1020
Zmeniť No Significant change
Nespracované LOWI 270550Z 25003KT 9999 FEW060 15/10 Q1020 NOSIG

VFR

14°C / 11°C

[Viac]
Vietor 260º variable 230º to 290º 3kt
Viditeľnosť 9700m
Počasie -
Oblaky Few Clouds 6000ft
Tlak 1020
Zmeniť No Significant change
Nespracované LOWI 270520Z 26003KT 230V290 9999 FEW060 14/11 Q1020 NOSIG

VFR

12°C / 10°C

[Viac]
Vietor 1kt
Viditeľnosť 9700m
Počasie -
Oblaky Few Clouds 6000ft
Tlak 1020
Zmeniť No Significant change
Nespracované LOWI 270450Z VRB01KT 9999 FEW060 12/10 Q1020 NOSIG

VFR

12°C / 10°C

[Viac]
Vietor 2kt
Viditeľnosť 9700m
Počasie -
Oblaky Few Clouds 8000ft
Scattered Clouds 12000ft
Tlak 1020
Zmeniť No Significant change
Nespracované LOWI 270420Z VRB02KT 9999 FEW080 SCT120 12/10 Q1020 NOSIG

VFR

11°C / 10°C

[Viac]
Vietor 240º 3kt
Viditeľnosť 9700m
Počasie -
Oblaky Few Clouds 8000ft
Scattered Clouds 12000ft
Tlak 1020
Zmeniť No Significant change
Nespracované LOWI 270350Z 24003KT 9999 FEW080 SCT120 11/10 Q1020 NOSIG

VFR

12°C / 9°C

[Viac]
Vietor 250º 2kt
Viditeľnosť 9700m
Počasie -
Oblaky Few Clouds 12000ft
Tlak 1020
Zmeniť -
Nespracované LOWI 270320Z AUTO 25002KT 9999 FEW120 12/09 Q1020

VFR

12°C / 10°C

[Viac]
Vietor 1kt
Viditeľnosť 9700m
Počasie -
Oblaky Few Clouds 11000ft
Tlak 1020
Zmeniť -
Nespracované LOWI 270250Z AUTO VRB01KT 9999 FEW110 12/10 Q1020

VFR

13°C / 10°C

[Viac]
Vietor 1kt
Viditeľnosť 9700m
Počasie -
Oblaky Few Clouds 8000ft
Tlak 1020
Zmeniť -
Nespracované LOWI 270220Z AUTO VRB01KT 9999 FEW080 13/10 Q1020

VFR

13°C / 10°C

[Viac]
Vietor 1kt
Viditeľnosť 9700m
Počasie -
Oblaky Few Clouds 8000ft
Broken Clouds 9000ft
Tlak 1020
Zmeniť -
Nespracované LOWI 270150Z AUTO VRB01KT 9999 FEW080 BKN090 13/10 Q1020

Správy TAF pre lokalitu Innsbruck (LOWI)

From till


Maximum Temperature 22ºC on . Minimum Temperature 12ºC on .
From till Wind 100º 10kt. Visibility 9700m. Scattered Clouds 6000ft.
Temporarly from till Wind 10kt. Gust 20kt. Showers Rain . Few Clouds 5000ft. Broken Clouds 6000ft.
With 40% probability, Temporarly from till Wind 270º 15kt. Gust 30kt. Thunderstorm Rain .
Becoming from till
Temporarly from till Rain . Scattered Clouds 800ft. Broken Clouds 1200ft.

Nespracované: TAF LOWI 271115Z 2712/2812 10010KT 9999 SCT060 TX22/2713Z TN12/2804Z TEMPO 2712/2724 VRB10G20KT SHRA FEW050CB BKN060 PROB40 TEMPO 2715/2721 27015G30KT TSRA BECMG 2800/2802 27005KT -RA TEMPO 2800/2807 RA SCT008 BKN012

Radar a krátkodobá predpoveď zrážok pre Innsbruck

Mrholenie
Slabý
Mierne
Ťažké
Veľmi ťažké
Krúpy

Značka polohy je umiestnená na Innsbruck. Táto animácia zobrazuje zrážkový radar pre vybraný časový rozsah, ako aj 2h predpoveď. Oranžové krížiky označujú blesky. Údaje poskytol nowcast.de (k dispozícii v USA, Európe a Austrálii). Mrholenie alebo slabé sneženie môže byť pre radar neviditeľné. Intenzita zrážok je farebne označená od tyrkysovej po červenú.

Aktuálne satelitné snímky a snímky zrážok pre lokalitu Innsbruck, Rakúsko

Značka polohy je umiestnená naInnsbruck. [Viac]

Satelitné snímky zhotovované v reálnom čase využívajú viditeľné svetlo počas dňa a infračervené žiarenie počas noci. Vzhľadom na to, že infračervené žiarenie zisťuje teplotné rozdiely, snímka v noci nie je tmavá. Nízke oblaky a hmlu je, žiaľ, ťažké odlíšiť od prízemných teplôt, preto môžu byť počas noci takmer neviditeľné. Meteosat satelitné snímky pre Európu sú aktualizované v reálnom čase každých 5 minút. Snímky z GOES-16/GOES-17 (Severná a Južná Amerika) a Himawari (Ázia) sú aktualizované každých 10 minút.

Zrážky sa odhadujú z radarov a satelitov. Odhady zrážok zo satelitov sú v noci menej presné ako počas dňa.

© 2024 meteoblue, NOAA Satellites GOES-16 and EUMETSAT. Údaje o bleskoch poskytuje nowcast.

Späť nahor
×
Dobrý deň,
zdá sa, že používate blokovač reklám.

Inzercia je nevyhnutná na udržiavanie našej bezplatnej webovej stránky s jedinečnými detailmi a presnosťou.

Prosím, zapíšte si www.meteoblue.com na bielu listinu blokovača reklám alebo zvážte kúpu niektorého z našich produktov:

Už máte predplatné?
Potom sa prosím prihláste.